sensor_id;sensor_type;location;lat;lon;timestamp;pressure;altitude;pressure_sealevel;temperature;humidity
6393;BME280;3229;42.674;23.282;2023-12-14T00:00:17;93604.31;;;10.55;72.12
6393;BME280;3229;42.674;23.282;2023-12-14T00:02:47;93640.09;;;10.55;72.12
6393;BME280;3229;42.674;23.282;2023-12-14T00:05:19;93596.03;;;10.53;72.13
6393;BME280;3229;42.674;23.282;2023-12-14T00:07:48;93616.47;;;10.53;72.03
6393;BME280;3229;42.674;23.282;2023-12-14T00:10:15;93623.34;;;10.53;72.28
6393;BME280;3229;42.674;23.282;2023-12-14T00:12:43;93614.88;;;10.52;72.08
6393;BME280;3229;42.674;23.282;2023-12-14T00:15:12;93621.75;;;10.52;72.03
6393;BME280;3229;42.674;23.282;2023-12-14T00:17:38;93631.97;;;10.52;72.31
6393;BME280;3229;42.674;23.282;2023-12-14T00:20:09;93621.91;;;10.50;72.01
6393;BME280;3229;42.674;23.282;2023-12-14T00:22:41;93612.97;;;10.46;72.28
6393;BME280;3229;42.674;23.282;2023-12-14T00:25:08;93630.69;;;10.48;72.39
6393;BME280;3229;42.674;23.282;2023-12-14T00:27:36;93626.72;;;10.45;72.22
6393;BME280;3229;42.674;23.282;2023-12-14T00:30:07;93597.34;;;10.33;72.18
6393;BME280;3229;42.674;23.282;2023-12-14T00:32:35;93629.09;;;10.47;72.18
6393;BME280;3229;42.674;23.282;2023-12-14T00:35:02;93635.00;;;10.47;72.21
6393;BME280;3229;42.674;23.282;2023-12-14T00:37:30;93620.66;;;10.46;72.36
6393;BME280;3229;42.674;23.282;2023-12-14T00:40:02;93607.88;;;10.46;72.23
6393;BME280;3229;42.674;23.282;2023-12-14T00:42:30;93634.53;;;10.44;72.34
6393;BME280;3229;42.674;23.282;2023-12-14T00:45:01;93619.19;;;10.44;72.23
6393;BME280;3229;42.674;23.282;2023-12-14T00:47:30;93622.72;;;10.43;72.30
6393;BME280;3229;42.674;23.282;2023-12-14T00:49:59;93614.44;;;10.41;72.31
6393;BME280;3229;42.674;23.282;2023-12-14T00:52:30;93599.75;;;10.26;72.31
6393;BME280;3229;42.674;23.282;2023-12-14T00:55:02;93612.81;;;10.40;72.34
6393;BME280;3229;42.674;23.282;2023-12-14T00:57:30;93607.09;;;10.21;72.42
6393;BME280;3229;42.674;23.282;2023-12-14T00:59:58;93616.34;;;10.39;72.54
6393;BME280;3229;42.674;23.282;2023-12-14T01:02:25;93621.31;;;10.24;72.18
6393;BME280;3229;42.674;23.282;2023-12-14T01:04:54;93614.75;;;10.38;72.37
6393;BME280;3229;42.674;23.282;2023-12-14T01:07:22;93631.84;;;10.37;72.29
6393;BME280;3229;42.674;23.282;2023-12-14T01:09:51;93617.44;;;10.36;72.50
6393;BME280;3229;42.674;23.282;2023-12-14T01:12:30;93624.31;;;10.36;72.53
6393;BME280;3229;42.674;23.282;2023-12-14T01:15:06;93628.03;;;10.33;72.30
6393;BME280;3229;42.674;23.282;2023-12-14T01:17:39;93578.84;;;10.07;72.40
6393;BME280;3229;42.674;23.282;2023-12-14T01:20:07;93616.22;;;10.32;72.52
6393;BME280;3229;42.674;23.282;2023-12-14T01:22:34;93620.50;;;10.32;72.61
6393;BME280;3229;42.674;23.282;2023-12-14T01:25:04;93610.78;;;10.27;72.41
6393;BME280;3229;42.674;23.282;2023-12-14T01:27:33;93611.09;;;10.24;72.59
6393;BME280;3229;42.674;23.282;2023-12-14T01:30:01;93615.56;;;10.30;72.74
6393;BME280;3229;42.674;23.282;2023-12-14T01:32:33;93621.78;;;10.27;72.71
6393;BME280;3229;42.674;23.282;2023-12-14T01:35:07;93621.00;;;10.27;72.67
6393;BME280;3229;42.674;23.282;2023-12-14T01:37:38;93612.69;;;10.25;72.62
6393;BME280;3229;42.674;23.282;2023-12-14T01:40:09;93624.69;;;10.24;72.68
6393;BME280;3229;42.674;23.282;2023-12-14T01:42:38;93617.13;;;10.23;72.68
6393;BME280;3229;42.674;23.282;2023-12-14T01:45:08;93605.00;;;10.17;72.53
6393;BME280;3229;42.674;23.282;2023-12-14T01:47:37;93609.16;;;10.18;72.59
6393;BME280;3229;42.674;23.282;2023-12-14T01:50:11;93639.50;;;10.21;72.75
6393;BME280;3229;42.674;23.282;2023-12-14T01:52:38;93591.94;;;10.20;72.78
6393;BME280;3229;42.674;23.282;2023-12-14T01:55:05;93602.78;;;10.05;72.66
6393;BME280;3229;42.674;23.282;2023-12-14T01:57:32;93602.63;;;10.15;72.88
6393;BME280;3229;42.674;23.282;2023-12-14T02:00:01;93578.53;;;10.01;72.88
6393;BME280;3229;42.674;23.282;2023-12-14T02:02:28;93604.22;;;10.16;72.53
6393;BME280;3229;42.674;23.282;2023-12-14T02:04:57;93603.25;;;10.17;72.95
6393;BME280;3229;42.674;23.282;2023-12-14T02:07:25;93611.09;;;10.16;72.96
6393;BME280;3229;42.674;23.282;2023-12-14T02:09:55;93580.44;;;10.16;72.67
6393;BME280;3229;42.674;23.282;2023-12-14T02:12:22;93567.66;;;10.08;72.90
6393;BME280;3229;42.674;23.282;2023-12-14T02:14:56;93586.34;;;10.16;72.82
6393;BME280;3229;42.674;23.282;2023-12-14T02:17:25;93584.88;;;10.14;72.87
6393;BME280;3229;42.674;23.282;2023-12-14T02:19:54;93557.28;;;10.17;72.76
6393;BME280;3229;42.674;23.282;2023-12-14T02:22:23;93578.50;;;10.18;72.75
6393;BME280;3229;42.674;23.282;2023-12-14T02:24:56;93587.75;;;10.19;72.82
6393;BME280;3229;42.674;23.282;2023-12-14T02:27:26;93574.97;;;10.19;72.95
6393;BME280;3229;42.674;23.282;2023-12-14T02:29:55;93579.16;;;10.20;73.00
6393;BME280;3229;42.674;23.282;2023-12-14T02:32:30;93569.44;;;10.07;72.77
6393;BME280;3229;42.674;23.282;2023-12-14T02:34:58;93571.31;;;10.21;72.86
6393;BME280;3229;42.674;23.282;2023-12-14T02:37:29;93575.47;;;10.22;72.80
6393;BME280;3229;42.674;23.282;2023-12-14T02:40:00;93566.84;;;10.23;72.85
6393;BME280;3229;42.674;23.282;2023-12-14T02:42:29;93594.97;;;10.23;72.89
6393;BME280;3229;42.674;23.282;2023-12-14T02:44:57;93594.03;;;10.24;72.88
6393;BME280;3229;42.674;23.282;2023-12-14T02:47:29;93584.59;;;10.25;72.79
6393;BME280;3229;42.674;23.282;2023-12-14T02:50:11;93609.19;;;10.26;72.95
6393;BME280;3229;42.674;23.282;2023-12-14T02:52:38;93598.31;;;10.24;72.74
6393;BME280;3229;42.674;23.282;2023-12-14T02:55:06;93581.06;;;10.26;72.88
6393;BME280;3229;42.674;23.282;2023-12-14T02:57:33;93611.56;;;10.27;72.90
6393;BME280;3229;42.674;23.282;2023-12-14T03:00:00;93571.63;;;10.18;72.88
6393;BME280;3229;42.674;23.282;2023-12-14T03:02:27;93605.66;;;10.27;72.97
6393;BME280;3229;42.674;23.282;2023-12-14T03:04:54;93597.50;;;10.23;72.77
6393;BME280;3229;42.674;23.282;2023-12-14T03:07:26;93592.56;;;10.30;72.74
6393;BME280;3229;42.674;23.282;2023-12-14T03:09:55;93582.16;;;10.32;72.69
6393;BME280;3229;42.674;23.282;2023-12-14T03:12:29;93582.16;;;10.32;72.71
6393;BME280;3229;42.674;23.282;2023-12-14T03:15:00;93575.47;;;10.30;72.76
6393;BME280;3229;42.674;23.282;2023-12-14T03:17:30;93553.75;;;10.26;73.05
6393;BME280;3229;42.674;23.282;2023-12-14T03:19:57;93565.09;;;10.32;72.83
6393;BME280;3229;42.674;23.282;2023-12-14T03:22:24;93576.91;;;10.33;72.83
6393;BME280;3229;42.674;23.282;2023-12-14T03:24:51;93551.06;;;10.28;73.00
6393;BME280;3229;42.674;23.282;2023-12-14T03:27:18;93570.38;;;10.30;72.79
6393;BME280;3229;42.674;23.282;2023-12-14T03:29:46;93555.69;;;10.24;72.83
6393;BME280;3229;42.674;23.282;2023-12-14T03:32:13;93561.91;;;10.30;72.95
6393;BME280;3229;42.674;23.282;2023-12-14T03:34:40;93554.72;;;10.34;72.85
6393;BME280;3229;42.674;23.282;2023-12-14T03:37:07;93544.50;;;10.34;72.99
6393;BME280;3229;42.674;23.282;2023-12-14T03:39:35;93547.03;;;10.34;72.85
6393;BME280;3229;42.674;23.282;2023-12-14T03:42:06;93541.94;;;10.34;72.78
6393;BME280;3229;42.674;23.282;2023-12-14T03:44:34;93540.16;;;10.34;72.99
6393;BME280;3229;42.674;23.282;2023-12-14T03:47:15;93536.81;;;10.34;72.89
6393;BME280;3229;42.674;23.282;2023-12-14T03:49:42;93551.38;;;10.33;72.90
6393;BME280;3229;42.674;23.282;2023-12-14T03:52:10;93527.41;;;10.34;72.92
6393;BME280;3229;42.674;23.282;2023-12-14T03:54:40;93536.81;;;10.34;72.99
6393;BME280;3229;42.674;23.282;2023-12-14T03:57:12;93513.34;;;10.30;72.91
6393;BME280;3229;42.674;23.282;2023-12-14T03:59:41;93534.44;;;10.32;72.96
6393;BME280;3229;42.674;23.282;2023-12-14T04:02:13;93537.78;;;10.33;72.82
6393;BME280;3229;42.674;23.282;2023-12-14T04:04:42;93519.25;;;10.30;72.94
6393;BME280;3229;42.674;23.282;2023-12-14T04:07:10;93523.56;;;10.30;73.03
6393;BME280;3229;42.674;23.282;2023-12-14T04:09:39;93549.78;;;10.32;72.92
6393;BME280;3229;42.674;23.282;2023-12-14T04:12:09;93511.00;;;10.12;72.68
6393;BME280;3229;42.674;23.282;2023-12-14T04:14:40;93555.50;;;10.34;72.95
6393;BME280;3229;42.674;23.282;2023-12-14T04:17:08;93542.91;;;10.24;72.82
6393;BME280;3229;42.674;23.282;2023-12-14T04:19:39;93552.94;;;10.34;72.96
6393;BME280;3229;42.674;23.282;2023-12-14T04:22:06;93566.53;;;10.35;73.14
6393;BME280;3229;42.674;23.282;2023-12-14T04:24:34;93569.06;;;10.35;72.87
6393;BME280;3229;42.674;23.282;2023-12-14T04:27:02;93556.94;;;10.37;73.07
6393;BME280;3229;42.674;23.282;2023-12-14T04:29:31;93527.41;;;10.26;72.96
6393;BME280;3229;42.674;23.282;2023-12-14T04:31:59;93554.38;;;10.37;72.92
6393;BME280;3229;42.674;23.282;2023-12-14T04:34:31;93551.00;;;10.36;73.10
6393;BME280;3229;42.674;23.282;2023-12-14T04:36:59;93557.88;;;10.36;73.12
6393;BME280;3229;42.674;23.282;2023-12-14T04:39:34;93552.78;;;10.36;73.09
6393;BME280;3229;42.674;23.282;2023-12-14T04:42:05;93550.88;;;10.38;73.01
6393;BME280;3229;42.674;23.282;2023-12-14T04:44:33;93559.31;;;10.38;72.91
6393;BME280;3229;42.674;23.282;2023-12-14T04:47:02;93536.34;;;10.38;73.30
6393;BME280;3229;42.674;23.282;2023-12-14T04:49:30;93527.72;;;10.31;73.06
6393;BME280;3229;42.674;23.282;2023-12-14T04:52:08;93555.66;;;10.41;73.13
6393;BME280;3229;42.674;23.282;2023-12-14T04:54:45;93541.75;;;10.35;73.38
6393;BME280;3229;42.674;23.282;2023-12-14T04:57:23;93544.78;;;10.39;73.06
6393;BME280;3229;42.674;23.282;2023-12-14T04:59:51;93559.00;;;10.41;73.19
6393;BME280;3229;42.674;23.282;2023-12-14T05:02:19;93551.34;;;10.41;73.09
6393;BME280;3229;42.674;23.282;2023-12-14T05:04:53;93556.44;;;10.41;73.22
6393;BME280;3229;42.674;23.282;2023-12-14T05:07:22;93552.94;;;10.42;72.96
6393;BME280;3229;42.674;23.282;2023-12-14T05:10:05;93521.19;;;10.28;73.11
6393;BME280;3229;42.674;23.282;2023-12-14T05:12:39;93559.00;;;10.41;73.27
6393;BME280;3229;42.674;23.282;2023-12-14T05:15:06;93551.34;;;10.41;72.94
6393;BME280;3229;42.674;23.282;2023-12-14T05:17:35;93542.88;;;10.41;73.25
6393;BME280;3229;42.674;23.282;2023-12-14T05:20:08;93541.13;;;10.41;73.11
6393;BME280;3229;42.674;23.282;2023-12-14T05:22:47;93553.91;;;10.41;73.22
6393;BME280;3229;42.674;23.282;2023-12-14T05:25:14;93544.94;;;10.45;80.09
6393;BME280;3229;42.674;23.282;2023-12-14T05:27:45;93547.56;;;10.99;100.00
6393;BME280;3229;42.674;23.282;2023-12-14T05:30:12;93562.22;;;11.60;100.00
6393;BME280;3229;42.674;23.282;2023-12-14T05:32:46;93554.44;;;12.14;100.00
6393;BME280;3229;42.674;23.282;2023-12-14T05:35:17;93556.47;;;12.48;100.00
6393;BME280;3229;42.674;23.282;2023-12-14T05:37:47;93555.94;;;12.67;97.43
6393;BME280;3229;42.674;23.282;2023-12-14T05:40:17;93576.44;;;12.67;95.53
6393;BME280;3229;42.674;23.282;2023-12-14T05:42:45;93585.47;;;12.63;93.22
6393;BME280;3229;42.674;23.282;2023-12-14T05:45:13;93574.50;;;12.54;91.17
6393;BME280;3229;42.674;23.282;2023-12-14T05:47:41;93573.19;;;12.44;89.16
6393;BME280;3229;42.674;23.282;2023-12-14T05:50:12;93586.44;;;12.33;87.86
6393;BME280;3229;42.674;23.282;2023-12-14T05:52:41;93579.97;;;12.22;86.56
6393;BME280;3229;42.674;23.282;2023-12-14T05:55:14;93586.31;;;12.11;85.68
6393;BME280;3229;42.674;23.282;2023-12-14T05:57:45;93580.66;;;12.01;84.74
6393;BME280;3229;42.674;23.282;2023-12-14T06:00:14;93584.25;;;11.92;84.59
6393;BME280;3229;42.674;23.282;2023-12-14T06:02:41;93591.03;;;11.85;83.83
6393;BME280;3229;42.674;23.282;2023-12-14T06:05:09;93578.13;;;11.70;83.48
6393;BME280;3229;42.674;23.282;2023-12-14T06:07:36;93592.53;;;11.71;82.99
6393;BME280;3229;42.674;23.282;2023-12-14T06:10:07;93585.53;;;11.65;82.71
6393;BME280;3229;42.674;23.282;2023-12-14T06:12:39;93592.16;;;11.59;82.03
6393;BME280;3229;42.674;23.282;2023-12-14T06:15:15;93596.97;;;11.54;81.72
6393;BME280;3229;42.674;23.282;2023-12-14T06:17:42;93593.31;;;11.48;81.60
6393;BME280;3229;42.674;23.282;2023-12-14T06:20:10;93564.19;;;11.26;81.19
6393;BME280;3229;42.674;23.282;2023-12-14T06:22:39;93610.97;;;11.43;80.90
6393;BME280;3229;42.674;23.282;2023-12-14T06:25:10;93607.00;;;11.41;80.58
6393;BME280;3229;42.674;23.282;2023-12-14T06:27:42;93616.59;;;11.39;80.35
6393;BME280;3229;42.674;23.282;2023-12-14T06:30:12;93605.88;;;11.35;80.25
6393;BME280;3229;42.674;23.282;2023-12-14T06:32:45;93612.44;;;11.38;79.88
6393;BME280;3229;42.674;23.282;2023-12-14T06:35:13;93607.50;;;11.36;79.65
6393;BME280;3229;42.674;23.282;2023-12-14T06:37:42;93604.28;;;11.34;79.54
6393;BME280;3229;42.674;23.282;2023-12-14T06:40:10;93619.00;;;11.40;79.29
6393;BME280;3229;42.674;23.282;2023-12-14T06:42:38;93615.28;;;11.43;79.16
6393;BME280;3229;42.674;23.282;2023-12-14T06:45:09;93608.25;;;11.45;78.95
6393;BME280;3229;42.674;23.282;2023-12-14T06:47:38;93633.47;;;11.48;78.65
6393;BME280;3229;42.674;23.282;2023-12-14T06:50:08;93629.00;;;11.50;78.50
6393;BME280;3229;42.674;23.282;2023-12-14T06:52:36;93637.16;;;11.53;78.39
6393;BME280;3229;42.674;23.282;2023-12-14T06:55:08;93651.03;;;11.59;78.18
6393;BME280;3229;42.674;23.282;2023-12-14T06:57:36;93641.06;;;11.64;77.84
6393;BME280;3229;42.674;23.282;2023-12-14T07:00:08;93623.28;;;11.71;77.58
6393;BME280;3229;42.674;23.282;2023-12-14T07:02:36;93619.22;;;11.76;77.53
6393;BME280;3229;42.674;23.282;2023-12-14T07:05:09;93626.25;;;11.83;77.22
6393;BME280;3229;42.674;23.282;2023-12-14T07:07:36;93638.19;;;11.90;76.91
6393;BME280;3229;42.674;23.282;2023-12-14T07:10:04;93641.34;;;12.00;76.62
6393;BME280;3229;42.674;23.282;2023-12-14T07:12:37;93642.69;;;12.11;76.25
6393;BME280;3229;42.674;23.282;2023-12-14T07:15:07;93649.00;;;12.23;75.99
6393;BME280;3229;42.674;23.282;2023-12-14T07:17:36;93647.78;;;12.34;75.68
6393;BME280;3229;42.674;23.282;2023-12-14T07:20:06;93651.84;;;12.43;75.55
6393;BME280;3229;42.674;23.282;2023-12-14T07:22:33;93649.13;;;12.45;75.24
6393;BME280;3229;42.674;23.282;2023-12-14T07:25:01;93648.06;;;12.54;74.91
6393;BME280;3229;42.674;23.282;2023-12-14T07:27:30;93665.69;;;12.72;74.76
6393;BME280;3229;42.674;23.282;2023-12-14T07:30:04;93679.22;;;12.80;74.42
6393;BME280;3229;42.674;23.282;2023-12-14T07:32:40;93654.47;;;12.88;74.09
6393;BME280;3229;42.674;23.282;2023-12-14T07:35:07;93650.50;;;13.00;74.07
6393;BME280;3229;42.674;23.282;2023-12-14T07:37:34;93669.94;;;13.09;73.55
6393;BME280;3229;42.674;23.282;2023-12-14T07:40:02;93666.13;;;13.20;73.42
6393;BME280;3229;42.674;23.282;2023-12-14T07:42:31;93672.78;;;13.29;73.22
6393;BME280;3229;42.674;23.282;2023-12-14T07:45:00;93675.25;;;13.37;72.90
6393;BME280;3229;42.674;23.282;2023-12-14T07:47:28;93669.66;;;13.48;72.58
6393;BME280;3229;42.674;23.282;2023-12-14T07:50:01;93662.00;;;13.55;72.46
6393;BME280;3229;42.674;23.282;2023-12-14T07:52:40;93656.78;;;13.63;72.12
6393;BME280;3229;42.674;23.282;2023-12-14T07:55:11;93675.28;;;13.73;71.95
6393;BME280;3229;42.674;23.282;2023-12-14T07:57:42;93683.81;;;13.80;71.69
6393;BME280;3229;42.674;23.282;2023-12-14T08:00:11;93621.41;;;13.44;71.21
6393;BME280;3229;42.674;23.282;2023-12-14T08:02:39;93682.63;;;13.98;71.12
6393;BME280;3229;42.674;23.282;2023-12-14T08:05:10;93662.00;;;13.91;70.81
6393;BME280;3229;42.674;23.282;2023-12-14T08:07:37;93673.50;;;14.17;70.50
6393;BME280;3229;42.674;23.282;2023-12-14T08:10:10;93626.00;;;14.13;70.12
6393;BME280;3229;42.674;23.282;2023-12-14T08:12:52;93656.50;;;14.44;69.99
6393;BME280;3229;42.674;23.282;2023-12-14T08:15:25;93667.00;;;14.64;69.65
6393;BME280;3229;42.674;23.282;2023-12-14T08:17:59;93691.41;;;14.74;69.61
6393;BME280;3229;42.674;23.282;2023-12-14T08:20:32;93672.63;;;14.80;69.22
6393;BME280;3229;42.674;23.282;2023-12-14T08:23:03;93688.13;;;14.87;69.15
6393;BME280;3229;42.674;23.282;2023-12-14T08:25:35;93679.47;;;14.95;69.07
6393;BME280;3229;42.674;23.282;2023-12-14T08:28:07;93683.03;;;15.00;69.01
6393;BME280;3229;42.674;23.282;2023-12-14T08:30:38;93678.75;;;15.08;68.77
6393;BME280;3229;42.674;23.282;2023-12-14T08:33:05;93698.56;;;15.14;68.50
6393;BME280;3229;42.674;23.282;2023-12-14T08:35:34;93661.88;;;15.05;68.42
6393;BME280;3229;42.674;23.282;2023-12-14T08:38:04;93703.78;;;15.27;68.30
6393;BME280;3229;42.674;23.282;2023-12-14T08:40:32;93693.53;;;15.34;67.94
6393;BME280;3229;42.674;23.282;2023-12-14T08:42:59;93677.28;;;15.33;67.67
6393;BME280;3229;42.674;23.282;2023-12-14T08:45:29;93694.19;;;15.49;67.59
6393;BME280;3229;42.674;23.282;2023-12-14T08:47:59;93691.03;;;15.53;67.56
6393;BME280;3229;42.674;23.282;2023-12-14T08:50:28;93699.16;;;15.57;67.21
6393;BME280;3229;42.674;23.282;2023-12-14T08:52:57;93695.09;;;15.69;67.13
6393;BME280;3229;42.674;23.282;2023-12-14T08:55:27;93689.75;;;15.77;66.95
6393;BME280;3229;42.674;23.282;2023-12-14T08:57:55;93686.22;;;15.85;66.70
6393;BME280;3229;42.674;23.282;2023-12-14T09:00:25;93678.69;;;15.90;66.58
6393;BME280;3229;42.674;23.282;2023-12-14T09:02:53;93708.47;;;15.99;66.21
6393;BME280;3229;42.674;23.282;2023-12-14T09:05:20;93701.34;;;16.08;66.10
6393;BME280;3229;42.674;23.282;2023-12-14T09:07:48;93689.84;;;16.11;65.77
6393;BME280;3229;42.674;23.282;2023-12-14T09:10:22;93697.78;;;16.22;65.80
6393;BME280;3229;42.674;23.282;2023-12-14T09:12:59;93691.44;;;16.31;65.49
6393;BME280;3229;42.674;23.282;2023-12-14T09:15:25;93684.50;;;16.39;65.43
6393;BME280;3229;42.674;23.282;2023-12-14T09:17:53;93649.19;;;16.19;65.33
6393;BME280;3229;42.674;23.282;2023-12-14T09:20:20;93682.91;;;16.51;65.13
6393;BME280;3229;42.674;23.282;2023-12-14T09:22:47;93690.66;;;16.58;64.96
6393;BME280;3229;42.674;23.282;2023-12-14T09:25:15;93689.06;;;16.63;64.81
6393;BME280;3229;42.674;23.282;2023-12-14T09:27:45;93680.31;;;16.71;64.70
6393;BME280;3229;42.674;23.282;2023-12-14T09:30:12;93686.13;;;16.73;64.63
6393;BME280;3229;42.674;23.282;2023-12-14T09:32:39;93611.88;;;16.28;64.37
6393;BME280;3229;42.674;23.282;2023-12-14T09:35:06;93706.75;;;16.86;64.38
6393;BME280;3229;42.674;23.282;2023-12-14T09:37:33;93702.38;;;16.93;64.19
6393;BME280;3229;42.674;23.282;2023-12-14T09:40:01;93713.69;;;16.99;64.04
6393;BME280;3229;42.674;23.282;2023-12-14T09:42:27;93713.09;;;17.03;63.91
6393;BME280;3229;42.674;23.282;2023-12-14T09:44:56;93696.00;;;17.09;63.86
6393;BME280;3229;42.674;23.282;2023-12-14T09:47:23;93723.00;;;17.13;63.77
6393;BME280;3229;42.674;23.282;2023-12-14T09:49:50;93719.63;;;17.13;63.52
6393;BME280;3229;42.674;23.282;2023-12-14T09:52:18;93715.66;;;17.23;63.46
6393;BME280;3229;42.674;23.282;2023-12-14T09:54:45;93714.81;;;17.29;63.23
6393;BME280;3229;42.674;23.282;2023-12-14T09:57:12;93730.72;;;17.33;63.17
6393;BME280;3229;42.674;23.282;2023-12-14T09:59:39;93724.75;;;17.39;62.96
6393;BME280;3229;42.674;23.282;2023-12-14T10:02:12;93727.53;;;17.44;62.96
6393;BME280;3229;42.674;23.282;2023-12-14T10:04:40;93719.78;;;17.44;63.01
6393;BME280;3229;42.674;23.282;2023-12-14T10:07:06;93708.00;;;17.48;62.93
6393;BME280;3229;42.674;23.282;2023-12-14T10:09:34;93552.50;;;16.42;62.91
6393;BME280;3229;42.674;23.282;2023-12-14T10:12:04;93719.94;;;17.49;62.79
6393;BME280;3229;42.674;23.282;2023-12-14T10:14:31;93721.94;;;17.47;62.94
6393;BME280;3229;42.674;23.282;2023-12-14T10:16:59;93601.28;;;16.70;62.85
6393;BME280;3229;42.674;23.282;2023-12-14T10:19:27;93712.22;;;17.43;62.78
6393;BME280;3229;42.674;23.282;2023-12-14T10:21:55;93710.03;;;17.40;62.85
6393;BME280;3229;42.674;23.282;2023-12-14T10:24:22;93709.44;;;17.38;62.74
6393;BME280;3229;42.674;23.282;2023-12-14T10:26:50;93708.03;;;17.35;62.73
6393;BME280;3229;42.674;23.282;2023-12-14T10:29:17;93683.25;;;17.21;62.90
6393;BME280;3229;42.674;23.282;2023-12-14T10:31:44;93694.97;;;17.23;62.85
6393;BME280;3229;42.674;23.282;2023-12-14T10:34:11;93720.78;;;17.30;62.77
6393;BME280;3229;42.674;23.282;2023-12-14T10:36:40;93692.63;;;17.09;62.63
6393;BME280;3229;42.674;23.282;2023-12-14T10:39:14;93733.75;;;17.23;62.75
6393;BME280;3229;42.674;23.282;2023-12-14T10:41:41;93721.22;;;17.14;62.81
6393;BME280;3229;42.674;23.282;2023-12-14T10:44:09;93736.53;;;17.15;62.78
6393;BME280;3229;42.674;23.282;2023-12-14T10:46:37;93731.19;;;17.10;62.92
6393;BME280;3229;42.674;23.282;2023-12-14T10:49:03;93672.56;;;16.58;63.19
6393;BME280;3229;42.674;23.282;2023-12-14T10:51:32;93735.78;;;16.88;62.94
6393;BME280;3229;42.674;23.282;2023-12-14T10:54:01;93691.25;;;16.60;62.91
6393;BME280;3229;42.674;23.282;2023-12-14T10:56:28;93770.13;;;16.95;63.20
6393;BME280;3229;42.674;23.282;2023-12-14T10:58:56;93766.97;;;16.93;63.35
6393;BME280;3229;42.674;23.282;2023-12-14T11:01:25;93760.59;;;16.89;63.46
6393;BME280;3229;42.674;23.282;2023-12-14T11:03:54;93739.09;;;16.62;63.54
6393;BME280;3229;42.674;23.282;2023-12-14T11:06:28;93786.78;;;16.79;63.71
6393;BME280;3229;42.674;23.282;2023-12-14T11:08:58;93796.34;;;16.72;63.87
6393;BME280;3229;42.674;23.282;2023-12-14T11:11:30;93788.13;;;16.62;64.09
6393;BME280;3229;42.674;23.282;2023-12-14T11:13:57;93783.97;;;16.54;64.19
6393;BME280;3229;42.674;23.282;2023-12-14T11:16:26;93784.56;;;16.37;64.38
6393;BME280;3229;42.674;23.282;2023-12-14T11:19:23;93806.16;;;16.36;64.51
6393;BME280;3229;42.674;23.282;2023-12-14T11:22:09;93802.53;;;16.23;64.49
6393;BME280;3229;42.674;23.282;2023-12-14T11:24:36;93804.50;;;16.15;64.80
6393;BME280;3229;42.674;23.282;2023-12-14T11:27:06;93806.28;;;16.08;64.90
6393;BME280;3229;42.674;23.282;2023-12-14T11:29:33;93822.13;;;15.98;64.92
6393;BME280;3229;42.674;23.282;2023-12-14T11:32:00;93814.91;;;15.87;65.02
6393;BME280;3229;42.674;23.282;2023-12-14T11:34:27;93826.22;;;15.86;65.10
6393;BME280;3229;42.674;23.282;2023-12-14T11:36:54;93831.53;;;15.77;65.31
6393;BME280;3229;42.674;23.282;2023-12-14T11:39:21;93827.13;;;15.71;65.30
6393;BME280;3229;42.674;23.282;2023-12-14T11:41:58;93840.00;;;15.65;65.43
6393;BME280;3229;42.674;23.282;2023-12-14T11:44:27;93831.81;;;15.61;65.19
6393;BME280;3229;42.674;23.282;2023-12-14T11:46:53;93823.22;;;15.54;65.20
6393;BME280;3229;42.674;23.282;2023-12-14T11:49:20;93836.69;;;15.49;65.25
6393;BME280;3229;42.674;23.282;2023-12-14T11:51:47;93854.13;;;15.47;65.28
6393;BME280;3229;42.674;23.282;2023-12-14T11:54:14;93814.50;;;15.20;65.26
6393;BME280;3229;42.674;23.282;2023-12-14T11:56:46;93862.78;;;15.40;65.29
6393;BME280;3229;42.674;23.282;2023-12-14T11:59:15;93871.88;;;15.36;65.22
6393;BME280;3229;42.674;23.282;2023-12-14T12:01:55;93845.81;;;15.24;65.33
6393;BME280;3229;42.674;23.282;2023-12-14T12:04:23;93802.97;;;14.88;65.09
6393;BME280;3229;42.674;23.282;2023-12-14T12:06:50;93879.72;;;15.27;65.18
6393;BME280;3229;42.674;23.282;2023-12-14T12:09:35;93872.19;;;15.26;65.20
6393;BME280;3229;42.674;23.282;2023-12-14T12:12:05;93880.13;;;15.24;65.21
6393;BME280;3229;42.674;23.282;2023-12-14T12:14:32;93870.13;;;15.15;65.28
6393;BME280;3229;42.674;23.282;2023-12-14T12:17:00;93885.00;;;15.19;65.14
6393;BME280;3229;42.674;23.282;2023-12-14T12:19:27;93886.38;;;15.15;65.21
6393;BME280;3229;42.674;23.282;2023-12-14T12:21:54;93889.94;;;15.14;65.16
6393;BME280;3229;42.674;23.282;2023-12-14T12:24:20;93889.34;;;15.12;65.08
6393;BME280;3229;42.674;23.282;2023-12-14T12:26:47;93896.63;;;15.09;65.28
6393;BME280;3229;42.674;23.282;2023-12-14T12:29:14;93892.47;;;15.08;65.22
6393;BME280;3229;42.674;23.282;2023-12-14T12:31:41;93890.25;;;15.04;65.08
6393;BME280;3229;42.674;23.282;2023-12-14T12:34:09;93897.72;;;14.99;65.07
6393;BME280;3229;42.674;23.282;2023-12-14T12:36:36;93876.91;;;14.94;65.09
6393;BME280;3229;42.674;23.282;2023-12-14T12:39:03;93894.06;;;14.87;65.18
6393;BME280;3229;42.674;23.282;2023-12-14T12:41:31;93906.97;;;14.94;65.11
6393;BME280;3229;42.674;23.282;2023-12-14T12:43:58;93889.94;;;14.93;64.96
6393;BME280;3229;42.674;23.282;2023-12-14T12:46:31;93908.94;;;14.92;65.01
6393;BME280;3229;42.674;23.282;2023-12-14T12:48:57;93909.94;;;14.91;65.00
6393;BME280;3229;42.674;23.282;2023-12-14T12:51:26;93887.47;;;14.85;64.82
6393;BME280;3229;42.674;23.282;2023-12-14T12:53:54;93920.94;;;14.85;64.98
6393;BME280;3229;42.674;23.282;2023-12-14T12:56:22;93892.34;;;14.73;65.07
6393;BME280;3229;42.674;23.282;2023-12-14T12:58:56;93878.22;;;14.69;65.06
6393;BME280;3229;42.674;23.282;2023-12-14T13:01:30;93905.59;;;14.76;65.17
6393;BME280;3229;42.674;23.282;2023-12-14T13:03:58;93902.78;;;14.71;64.93
6393;BME280;3229;42.674;23.282;2023-12-14T13:06:33;93906.16;;;14.72;64.88
6393;BME280;3229;42.674;23.282;2023-12-14T13:09:05;93919.03;;;14.72;65.11
6393;BME280;3229;42.674;23.282;2023-12-14T13:11:33;93901.41;;;14.69;65.23
6393;BME280;3229;42.674;23.282;2023-12-14T13:14:02;93915.75;;;14.63;65.07
6393;BME280;3229;42.674;23.282;2023-12-14T13:16:38;93919.31;;;14.62;65.17
6393;BME280;3229;42.674;23.282;2023-12-14T13:19:08;93904.78;;;14.54;65.28
6393;BME280;3229;42.674;23.282;2023-12-14T13:21:46;93931.69;;;14.52;65.47